createdAt,value
2022-09-20T00:00:40.047Z,10.80
2022-09-20T00:03:06.537Z,10.80
2022-09-20T00:05:34.107Z,10.80
2022-09-20T00:08:00.676Z,10.70
2022-09-20T00:10:27.466Z,10.70
2022-09-20T00:12:53.940Z,10.60
2022-09-20T00:15:20.465Z,10.60
2022-09-20T00:17:47.001Z,10.60
2022-09-20T00:20:13.736Z,10.60
2022-09-20T00:22:40.258Z,10.60
2022-09-20T00:25:07.169Z,10.50
2022-09-20T00:27:33.723Z,10.50
2022-09-20T00:30:00.245Z,10.50
2022-09-20T00:32:26.740Z,10.60
2022-09-20T00:35:09.683Z,10.60
2022-09-20T00:37:37.653Z,10.60
2022-09-20T00:40:05.442Z,10.50
2022-09-20T00:42:32.785Z,10.50
2022-09-20T00:44:59.390Z,10.50
2022-09-20T00:47:25.927Z,10.50
2022-09-20T00:49:54.849Z,10.50
2022-09-20T00:52:21.574Z,10.40
2022-09-20T00:54:48.691Z,10.40
2022-09-20T00:57:15.459Z,10.30
2022-09-20T00:59:43.367Z,10.40
2022-09-20T01:02:12.632Z,10.40
2022-09-20T01:04:40.642Z,10.40
2022-09-20T01:07:08.214Z,10.40
2022-09-20T01:09:35.036Z,10.30
2022-09-20T01:12:03.443Z,10.30
2022-09-20T01:14:30.356Z,10.30
2022-09-20T01:17:00.040Z,10.30
2022-09-20T01:19:37.873Z,10.30
2022-09-20T01:22:06.466Z,10.30
2022-09-20T01:24:44.290Z,10.30
2022-09-20T01:27:22.248Z,10.30
2022-09-20T01:30:02.322Z,10.30
2022-09-20T01:32:35.440Z,10.30
2022-09-20T01:35:02.350Z,10.30
2022-09-20T01:37:38.110Z,10.30
2022-09-20T01:40:23.329Z,10.30
2022-09-20T01:43:06.425Z,10.30
2022-09-20T01:45:33.020Z,10.30
2022-09-20T01:48:05.318Z,10.30
2022-09-20T01:50:47.114Z,10.40
2022-09-20T01:53:26.326Z,10.40
2022-09-20T01:56:17.757Z,10.40
2022-09-20T01:58:44.243Z,10.30
2022-09-20T02:01:30.903Z,10.40
2022-09-20T02:04:09.812Z,10.40
2022-09-20T02:06:49.106Z,10.40
2022-09-20T02:09:34.583Z,10.40
2022-09-20T02:12:19.486Z,10.40
2022-09-20T02:14:57.304Z,10.40
2022-09-20T02:17:42.565Z,10.40
2022-09-20T02:20:12.136Z,10.50
2022-09-20T02:22:41.769Z,10.50
2022-09-20T02:25:08.282Z,10.50
2022-09-20T02:28:07.326Z,10.50
2022-09-20T02:30:52.764Z,10.50
2022-09-20T02:33:37.788Z,10.50
2022-09-20T02:36:04.585Z,10.50
2022-09-20T02:38:42.639Z,10.60
2022-09-20T02:41:28.037Z,10.50
2022-09-20T02:44:13.348Z,10.50
2022-09-20T02:46:58.711Z,10.50
2022-09-20T02:49:25.182Z,10.50
2022-09-20T02:51:53.747Z,10.50
2022-09-20T02:54:39.140Z,10.40
2022-09-20T02:57:05.871Z,10.40
2022-09-20T02:59:54.372Z,10.40
2022-09-20T03:02:24.971Z,10.40
2022-09-20T03:05:10.359Z,10.40
2022-09-20T03:07:46.073Z,10.30
2022-09-20T03:10:31.883Z,10.30
2022-09-20T03:13:17.516Z,10.30
2022-09-20T03:16:03.000Z,10.30
2022-09-20T03:18:34.137Z,10.30
2022-09-20T03:21:15.383Z,10.30
2022-09-20T03:24:00.587Z,10.30
2022-09-20T03:26:45.954Z,10.30
2022-09-20T03:29:24.660Z,10.30
2022-09-20T03:32:09.832Z,10.30
2022-09-20T03:34:46.274Z,10.30
2022-09-20T03:37:12.895Z,10.30
2022-09-20T03:39:39.380Z,10.20
2022-09-20T03:42:24.446Z,10.20
2022-09-20T03:44:54.045Z,10.20
2022-09-20T03:47:31.885Z,10.20
2022-09-20T03:50:14.488Z,10.20
2022-09-20T03:52:41.050Z,10.20
2022-09-20T03:55:16.654Z,10.20
2022-09-20T03:57:51.943Z,10.20
2022-09-20T04:00:23.570Z,10.20
2022-09-20T04:03:05.137Z,10.20
2022-09-20T04:05:50.850Z,10.30
2022-09-20T04:08:46.500Z,10.30
2022-09-20T04:11:17.920Z,10.30
2022-09-20T04:13:50.531Z,10.30
2022-09-20T04:16:39.654Z,10.30
2022-09-20T04:19:27.586Z,10.20
2022-09-20T04:21:57.553Z,10.30
2022-09-20T04:24:30.015Z,10.30
2022-09-20T04:27:12.057Z,10.20
2022-09-20T04:29:49.212Z,10.30
2022-09-20T04:32:31.094Z,10.20
2022-09-20T04:35:31.148Z,10.30
2022-09-20T04:37:59.523Z,10.30
2022-09-20T04:40:54.100Z,10.30
2022-09-20T04:43:39.523Z,10.30
2022-09-20T04:46:12.165Z,10.30
2022-09-20T04:48:44.556Z,10.20
2022-09-20T04:51:23.220Z,10.20
2022-09-20T04:54:08.282Z,10.20
2022-09-20T04:56:41.373Z,10.20
2022-09-20T04:59:08.240Z,10.20
2022-09-20T05:02:04.913Z,10.20
2022-09-20T05:04:47.180Z,10.20
2022-09-20T05:07:32.762Z,10.10
2022-09-20T05:10:10.338Z,10.10
2022-09-20T05:12:56.371Z,10.10
2022-09-20T05:15:37.854Z,10.00
2022-09-20T05:18:23.797Z,10.00
2022-09-20T05:21:03.466Z,9.90
2022-09-20T05:23:40.450Z,9.90
2022-09-20T05:26:18.520Z,9.90
2022-09-20T05:29:03.424Z,9.90
2022-09-20T05:31:49.671Z,9.90
2022-09-20T05:34:22.092Z,9.80
2022-09-20T05:36:56.361Z,9.90
2022-09-20T05:39:33.190Z,9.90
2022-09-20T05:42:11.697Z,10.00
2022-09-20T05:44:50.764Z,10.00
2022-09-20T05:47:23.312Z,10.10
2022-09-20T05:50:04.385Z,10.10
2022-09-20T05:52:53.913Z,10.20
2022-09-20T05:55:28.351Z,10.20
2022-09-20T05:58:04.022Z,10.30
2022-09-20T06:00:34.254Z,10.40
2022-09-20T06:03:18.511Z,10.30
2022-09-20T06:05:45.019Z,10.50
2022-09-20T06:08:18.646Z,10.50
2022-09-20T06:10:47.263Z,10.60
2022-09-20T06:13:32.524Z,10.60
2022-09-20T06:16:04.479Z,10.70
2022-09-20T06:18:45.292Z,10.80
2022-09-20T06:21:25.428Z,10.80
2022-09-20T06:23:56.799Z,11.00
2022-09-20T06:26:25.004Z,11.10
2022-09-20T06:28:58.210Z,11.30
2022-09-20T06:31:25.541Z,11.60
2022-09-20T06:34:00.238Z,12.10
2022-09-20T06:36:47.535Z,12.70
2022-09-20T06:39:51.730Z,13.30
2022-09-20T06:42:18.557Z,13.80
2022-09-20T06:44:45.041Z,14.20
2022-09-20T06:47:12.365Z,14.40
2022-09-20T06:49:41.142Z,14.40
2022-09-20T06:52:10.356Z,14.20
2022-09-20T06:54:37.823Z,14.10
2022-09-20T06:57:06.175Z,13.90
2022-09-20T06:59:32.671Z,14.20
2022-09-20T07:01:59.251Z,14.50
2022-09-20T07:04:26.904Z,14.80
2022-09-20T07:06:59.559Z,14.90
2022-09-20T07:09:26.046Z,15.00
2022-09-20T07:11:52.553Z,15.00
2022-09-20T07:14:19.185Z,15.00
2022-09-20T07:16:45.782Z,14.90
2022-09-20T07:19:12.325Z,14.90
2022-09-20T07:21:38.897Z,14.80
2022-09-20T07:24:05.407Z,14.70
2022-09-20T07:26:32.031Z,14.50
2022-09-20T07:28:59.123Z,14.60
2022-09-20T07:31:26.345Z,14.60
2022-09-20T07:33:52.903Z,14.70
2022-09-20T07:36:19.439Z,15.20
2022-09-20T07:38:50.057Z,15.40
2022-09-20T07:41:18.955Z,15.60
2022-09-20T07:43:45.841Z,15.70
2022-09-20T07:46:13.585Z,15.60
2022-09-20T07:48:40.633Z,16.00
2022-09-20T07:51:09.074Z,16.30
2022-09-20T07:53:36.216Z,16.30
2022-09-20T07:56:06.930Z,16.30
2022-09-20T07:58:34.326Z,16.00
2022-09-20T08:01:02.199Z,15.90
2022-09-20T08:03:32.419Z,16.00
2022-09-20T08:06:03.650Z,16.00
2022-09-20T08:08:37.171Z,16.00
2022-09-20T08:11:08.229Z,16.20
2022-09-20T08:16:25.202Z,16.20
2022-09-20T08:18:52.889Z,15.70
2022-09-20T08:21:19.453Z,16.00
2022-09-20T08:23:49.376Z,16.40
2022-09-20T08:26:18.382Z,16.70
2022-09-20T08:28:45.591Z,17.00
2022-09-20T08:31:16.307Z,17.40
2022-09-20T08:33:43.190Z,17.40
2022-09-20T08:36:14.135Z,17.30
2022-09-20T08:41:31.044Z,17.00
2022-09-20T08:44:18.559Z,17.10
2022-09-20T08:46:48.230Z,17.30
2022-09-20T08:49:35.081Z,17.30
2022-09-20T08:52:03.156Z,17.50
2022-09-20T08:54:32.714Z,17.50
2022-09-20T08:57:07.021Z,17.60
2022-09-20T08:59:33.525Z,17.60
2022-09-20T09:02:00.094Z,17.50
2022-09-20T09:04:34.211Z,17.70
2022-09-20T09:07:00.847Z,18.00
2022-09-20T09:09:28.356Z,18.30
2022-09-20T09:11:55.612Z,18.60
2022-09-20T09:14:45.921Z,19.00
2022-09-20T09:17:13.705Z,19.30
2022-09-20T09:19:44.068Z,19.80
2022-09-20T09:22:10.759Z,20.30
2022-09-20T09:24:37.285Z,21.30
2022-09-20T09:27:17.373Z,22.70
2022-09-20T09:29:50.995Z,23.80
2022-09-20T09:32:20.682Z,25.10
2022-09-20T09:34:47.307Z,24.70
2022-09-20T09:37:29.000Z,23.30
2022-09-20T09:40:08.040Z,21.90
2022-09-20T09:42:34.939Z,20.50
2022-09-20T09:45:11.467Z,19.40
2022-09-20T09:47:38.333Z,18.70
2022-09-20T09:50:09.711Z,18.10
2022-09-20T09:52:36.731Z,17.70
2022-09-20T09:55:05.606Z,17.20
2022-09-20T09:57:53.803Z,16.70
2022-09-20T10:00:24.107Z,17.30
2022-09-20T10:03:00.368Z,18.40
2022-09-20T10:05:29.777Z,20.40
2022-09-20T10:08:14.770Z,22.30
2022-09-20T10:10:50.881Z,22.20
2022-09-20T10:13:17.371Z,22.80
2022-09-20T10:15:53.172Z,22.70
2022-09-20T10:18:25.651Z,21.80
2022-09-20T10:20:58.088Z,20.80
2022-09-20T10:23:58.996Z,20.20
2022-09-20T10:26:30.786Z,19.40
2022-09-20T10:29:03.101Z,18.80
2022-09-20T10:31:48.631Z,18.30
2022-09-20T10:34:27.391Z,18.50
2022-09-20T10:36:56.397Z,20.80
2022-09-20T10:39:28.565Z,22.00
2022-09-20T10:42:21.879Z,22.10
2022-09-20T10:45:00.428Z,21.30
2022-09-20T10:47:31.343Z,20.90
2022-09-20T10:50:16.487Z,20.20
2022-09-20T10:52:51.802Z,20.30
2022-09-20T10:55:20.267Z,20.60
2022-09-20T10:58:03.944Z,21.30
2022-09-20T11:00:54.580Z,22.30
2022-09-20T11:03:38.604Z,23.80
2022-09-20T11:06:08.185Z,25.60
2022-09-20T11:08:36.133Z,26.20
2022-09-20T11:11:08.673Z,26.00
2022-09-20T11:13:47.375Z,25.90
2022-09-20T11:16:19.588Z,26.30
2022-09-20T11:18:50.473Z,26.80
2022-09-20T11:21:37.604Z,27.70
2022-09-20T11:24:15.371Z,28.10
2022-09-20T11:26:44.732Z,27.40
2022-09-20T11:29:17.121Z,26.20
2022-09-20T11:31:45.662Z,25.00
2022-09-20T11:34:25.809Z,24.10
2022-09-20T11:36:58.742Z,23.30
2022-09-20T11:39:30.261Z,23.30
2022-09-20T11:41:59.832Z,22.70
2022-09-20T11:44:26.341Z,22.10
2022-09-20T11:46:52.879Z,21.90
2022-09-20T11:49:23.824Z,22.00
2022-09-20T11:51:59.968Z,21.90
2022-09-20T11:54:33.087Z,21.90
2022-09-20T11:57:00.567Z,23.10
2022-09-20T11:59:28.161Z,23.80
2022-09-20T12:01:56.850Z,24.60
2022-09-20T12:04:34.720Z,25.60
2022-09-20T12:07:09.710Z,25.70
2022-09-20T12:09:39.249Z,25.00
2022-09-20T12:12:16.746Z,23.80
2022-09-20T12:14:52.910Z,23.10
2022-09-20T12:17:38.528Z,22.70
2022-09-20T12:20:24.998Z,23.10
2022-09-20T12:22:51.484Z,24.40
2022-09-20T12:25:50.573Z,26.10
2022-09-20T12:28:17.260Z,26.00
2022-09-20T12:30:43.802Z,26.30
2022-09-20T12:33:19.391Z,26.10
2022-09-20T12:35:57.837Z,26.00
2022-09-20T12:38:28.778Z,26.30
2022-09-20T12:40:59.596Z,27.20
2022-09-20T12:43:27.653Z,27.50
2022-09-20T12:45:55.032Z,27.10
2022-09-20T12:48:21.815Z,26.30
2022-09-20T12:51:23.314Z,25.10
2022-09-20T12:54:05.457Z,25.40
2022-09-20T12:56:34.138Z,26.20
2022-09-20T12:59:05.397Z,27.20
2022-09-20T13:01:33.523Z,27.40
2022-09-20T13:04:18.937Z,26.50
2022-09-20T13:06:45.899Z,25.60
2022-09-20T13:09:13.921Z,24.20
2022-09-20T13:11:42.097Z,22.90
2022-09-20T13:14:08.636Z,22.50
2022-09-20T13:16:38.295Z,22.40
2022-09-20T13:19:18.525Z,23.10
2022-09-20T13:22:08.032Z,24.00
2022-09-20T13:24:38.315Z,24.80
2022-09-20T13:27:09.407Z,25.30
2022-09-20T13:29:40.617Z,26.00
2022-09-20T13:32:25.280Z,25.80
2022-09-20T13:35:10.139Z,25.80
2022-09-20T13:37:55.492Z,26.40
2022-09-20T13:40:23.931Z,26.20
2022-09-20T13:42:52.435Z,25.60
2022-09-20T13:45:20.548Z,25.20
2022-09-20T13:47:51.609Z,24.80
2022-09-20T13:50:18.437Z,24.30
2022-09-20T13:52:51.500Z,24.00
2022-09-20T13:55:20.905Z,23.90
2022-09-20T13:57:48.058Z,23.50
2022-09-20T14:00:15.389Z,23.60
2022-09-20T14:02:42.001Z,22.80
2022-09-20T14:05:15.209Z,22.40
2022-09-20T14:07:44.609Z,22.70
2022-09-20T14:10:27.224Z,22.40
2022-09-20T14:12:54.400Z,22.40
2022-09-20T14:15:21.422Z,21.80
2022-09-20T14:17:48.934Z,20.90
2022-09-20T14:20:16.895Z,20.80
2022-09-20T14:22:43.849Z,20.30
2022-09-20T14:25:13.459Z,20.00
2022-09-20T14:27:40.733Z,19.90
2022-09-20T14:30:07.852Z,20.00
2022-09-20T14:32:37.606Z,20.10
2022-09-20T14:35:06.746Z,20.10
2022-09-20T14:37:34.963Z,20.30
2022-09-20T14:40:07.163Z,20.30
2022-09-20T14:42:35.552Z,20.40
2022-09-20T14:45:03.819Z,20.00
2022-09-20T14:47:38.342Z,19.90
2022-09-20T14:50:21.809Z,19.90
2022-09-20T14:52:58.900Z,19.60
2022-09-20T14:55:28.428Z,19.50
2022-09-20T14:58:00.065Z,19.50
2022-09-20T15:00:27.100Z,19.50
2022-09-20T15:02:53.729Z,19.50
2022-09-20T15:05:25.908Z,19.70
2022-09-20T15:07:55.711Z,19.70
2022-09-20T15:10:22.530Z,19.70
2022-09-20T15:12:49.174Z,19.80
2022-09-20T15:15:17.482Z,19.50
2022-09-20T15:17:45.053Z,19.40
2022-09-20T15:20:24.168Z,19.20
2022-09-20T15:22:51.236Z,19.20
2022-09-20T15:25:24.507Z,19.20
2022-09-20T15:27:51.704Z,18.80
2022-09-20T15:30:19.715Z,18.80
2022-09-20T15:32:46.532Z,18.60
2022-09-20T15:35:14.200Z,18.60
2022-09-20T15:37:41.206Z,18.50
2022-09-20T15:40:08.618Z,18.30
2022-09-20T15:42:38.182Z,18.30
2022-09-20T15:45:06.129Z,18.40
2022-09-20T15:47:32.617Z,18.50
2022-09-20T15:49:59.788Z,18.50
2022-09-20T15:52:28.397Z,18.50
2022-09-20T15:54:59.353Z,18.60
2022-09-20T15:57:26.862Z,18.70
2022-09-20T15:59:53.425Z,18.60
2022-09-20T16:02:21.684Z,18.50
2022-09-20T16:04:48.398Z,18.50
2022-09-20T16:07:16.072Z,18.40
2022-09-20T16:09:43.878Z,18.30
2022-09-20T16:12:10.621Z,18.20
2022-09-20T16:14:37.095Z,18.10
2022-09-20T16:17:03.589Z,17.70
2022-09-20T16:19:30.458Z,17.50
2022-09-20T16:21:58.578Z,17.30
2022-09-20T16:24:29.899Z,17.20
2022-09-20T16:26:57.017Z,17.00
2022-09-20T16:29:25.012Z,16.70
2022-09-20T16:31:52.892Z,16.60
2022-09-20T16:34:20.776Z,16.40
2022-09-20T16:36:48.834Z,16.40
2022-09-20T16:39:16.296Z,16.10
2022-09-20T16:41:43.879Z,16.00
2022-09-20T16:44:10.392Z,15.90
2022-09-20T16:46:37.318Z,15.70
2022-09-20T16:49:04.931Z,15.50
2022-09-20T16:51:33.175Z,15.30
2022-09-20T16:54:07.217Z,15.20
2022-09-20T16:56:35.228Z,15.10
2022-09-20T16:59:02.192Z,15.00
2022-09-20T17:01:28.914Z,14.70
2022-09-20T17:03:55.474Z,14.60
2022-09-20T17:06:22.027Z,14.40
2022-09-20T17:08:56.784Z,14.30
2022-09-20T17:11:26.402Z,14.20
2022-09-20T17:13:53.770Z,14.20
2022-09-20T17:16:21.473Z,14.00
2022-09-20T17:18:53.183Z,13.90
2022-09-20T17:21:20.059Z,13.80
2022-09-20T17:23:50.836Z,13.80
2022-09-20T17:26:19.914Z,13.70
2022-09-20T17:28:47.288Z,13.60
2022-09-20T17:31:15.160Z,13.70
2022-09-20T17:33:42.097Z,13.60
2022-09-20T17:36:12.120Z,13.60
2022-09-20T17:38:39.291Z,13.50
2022-09-20T17:41:09.705Z,13.40
2022-09-20T17:43:37.402Z,13.30
2022-09-20T17:46:14.134Z,13.20
2022-09-20T17:48:41.711Z,13.10
2022-09-20T17:51:12.480Z,13.00
2022-09-20T17:53:39.385Z,13.00
2022-09-20T17:56:05.914Z,13.00
2022-09-20T17:58:34.173Z,12.90
2022-09-20T18:01:27.343Z,13.00
2022-09-20T18:03:56.126Z,12.90
2022-09-20T18:06:24.659Z,12.90
2022-09-20T18:08:52.451Z,12.90
2022-09-20T18:11:20.874Z,12.90
2022-09-20T18:13:47.534Z,12.80
2022-09-20T18:16:15.093Z,12.70
2022-09-20T18:18:43.549Z,12.70
2022-09-20T18:21:10.173Z,12.60
2022-09-20T18:23:36.715Z,12.50
2022-09-20T18:26:22.801Z,12.50
2022-09-20T18:28:51.345Z,12.40
2022-09-20T18:31:18.609Z,12.30
2022-09-20T18:33:45.124Z,12.20
2022-09-20T18:36:11.779Z,12.20
2022-09-20T18:38:38.810Z,12.10
2022-09-20T18:41:05.398Z,12.00
2022-09-20T18:43:35.420Z,12.00
2022-09-20T18:48:55.964Z,11.90
2022-09-20T18:51:24.312Z,11.80
2022-09-20T18:53:51.231Z,11.70
2022-09-20T18:56:25.300Z,11.70
2022-09-20T18:59:12.096Z,11.60
2022-09-20T19:01:54.360Z,11.60
2022-09-20T19:04:21.136Z,11.50
2022-09-20T19:07:07.897Z,11.40
2022-09-20T19:09:43.241Z,11.50
2022-09-20T19:12:17.644Z,11.40
2022-09-20T19:15:02.776Z,11.30
2022-09-20T19:17:40.276Z,11.30
2022-09-20T19:20:16.664Z,11.20
2022-09-20T19:22:46.192Z,11.10
2022-09-20T19:25:23.827Z,11.10
2022-09-20T19:27:51.363Z,11.00
2022-09-20T19:30:18.194Z,11.00
2022-09-20T19:32:45.190Z,10.90
2022-09-20T19:35:18.585Z,10.90
2022-09-20T19:38:00.370Z,10.90
2022-09-20T19:40:35.451Z,10.90
2022-09-20T19:43:13.808Z,10.80
2022-09-20T19:45:46.912Z,10.80
2022-09-20T19:48:18.628Z,10.70
2022-09-20T19:50:48.483Z,10.70
2022-09-20T19:53:16.809Z,10.60
2022-09-20T19:55:47.569Z,10.60
2022-09-20T19:58:14.542Z,10.60
2022-09-20T20:00:44.117Z,10.50
2022-09-20T20:03:14.577Z,10.50
2022-09-20T20:05:46.137Z,10.40
2022-09-20T20:08:22.105Z,10.30
2022-09-20T20:10:57.783Z,10.30
2022-09-20T20:13:46.204Z,10.30
2022-09-20T20:16:15.138Z,10.20
2022-09-20T20:18:41.661Z,10.20
2022-09-20T20:21:12.718Z,10.30
2022-09-20T20:23:39.690Z,10.10
2022-09-20T20:26:08.940Z,10.10
2022-09-20T20:28:35.968Z,10.10
2022-09-20T20:31:02.805Z,10.00
2022-09-20T20:33:30.133Z,10.00
2022-09-20T20:35:57.975Z,10.00
2022-09-20T20:38:28.202Z,10.00
2022-09-20T20:41:08.587Z,9.90
2022-09-20T20:43:36.375Z,9.90
2022-09-20T20:46:03.373Z,9.80
2022-09-20T20:48:30.188Z,9.80
2022-09-20T20:51:02.858Z,9.80
2022-09-20T20:53:30.838Z,9.70
2022-09-20T20:56:01.674Z,9.70
2022-09-20T20:58:32.460Z,9.70
2022-09-20T21:01:25.219Z,9.60
2022-09-20T21:03:52.785Z,9.50
2022-09-20T21:06:19.977Z,9.50
2022-09-20T21:08:49.502Z,9.40
2022-09-20T21:11:18.609Z,9.40
2022-09-20T21:13:45.351Z,9.40
2022-09-20T21:16:13.842Z,9.30
2022-09-20T21:18:41.695Z,9.30
2022-09-20T21:21:19.016Z,9.30
2022-09-20T21:23:47.267Z,9.20
2022-09-20T21:26:15.507Z,9.20
2022-09-20T21:28:43.547Z,9.20
2022-09-20T21:31:11.362Z,9.20
2022-09-20T21:33:39.322Z,9.20
2022-09-20T21:36:06.126Z,9.20
2022-09-20T21:38:35.564Z,9.10
2022-09-20T21:41:10.066Z,9.10
2022-09-20T21:43:36.607Z,9.00
2022-09-20T21:46:03.904Z,8.90
2022-09-20T21:48:30.517Z,8.90
2022-09-20T21:51:00.953Z,8.90
2022-09-20T21:53:27.480Z,8.90
2022-09-20T21:55:58.333Z,8.90
2022-09-20T21:58:24.976Z,8.90
2022-09-20T22:00:57.661Z,8.90
2022-09-20T22:03:24.175Z,8.80
2022-09-20T22:05:50.667Z,8.80
2022-09-20T22:08:17.143Z,8.70
2022-09-20T22:10:43.637Z,8.70
2022-09-20T22:13:10.137Z,8.70
2022-09-20T22:15:36.711Z,8.70
2022-09-20T22:18:04.953Z,8.70
2022-09-20T22:20:31.429Z,8.60
2022-09-20T22:22:58.120Z,8.50
2022-09-20T22:25:25.335Z,8.50
2022-09-20T22:27:51.842Z,8.40
2022-09-20T22:30:18.360Z,8.50
2022-09-20T22:32:45.022Z,8.50
2022-09-20T22:35:12.858Z,8.50
2022-09-20T22:37:39.341Z,8.50
2022-09-20T22:40:06.050Z,8.40
2022-09-20T22:42:32.640Z,8.40
2022-09-20T22:45:00.174Z,8.40
2022-09-20T22:47:26.731Z,8.30
2022-09-20T22:49:53.221Z,8.30
2022-09-20T22:52:19.704Z,8.30
2022-09-20T22:54:46.675Z,8.30
2022-09-20T22:57:13.364Z,7.90
2022-09-20T22:59:39.834Z,8.20
2022-09-20T23:02:06.399Z,8.20
2022-09-20T23:04:32.962Z,8.10
2022-09-20T23:06:59.451Z,8.20
2022-09-20T23:09:27.318Z,8.10
2022-09-20T23:11:53.862Z,8.00
2022-09-20T23:14:21.319Z,8.00
2022-09-20T23:16:48.247Z,7.90
2022-09-20T23:19:14.815Z,7.90
2022-09-20T23:21:42.322Z,7.90
2022-09-20T23:24:10.424Z,7.80
2022-09-20T23:26:37.817Z,7.80
2022-09-20T23:29:06.150Z,7.80
2022-09-20T23:31:34.490Z,7.70
2022-09-20T23:34:02.084Z,7.70
2022-09-20T23:36:29.650Z,7.60
2022-09-20T23:38:58.871Z,7.80
2022-09-20T23:41:26.395Z,7.70
2022-09-20T23:43:53.137Z,7.70
2022-09-20T23:46:20.397Z,7.60
2022-09-20T23:48:46.997Z,7.60
2022-09-20T23:51:15.478Z,7.50
2022-09-20T23:53:42.772Z,7.50
2022-09-20T23:56:10.022Z,7.50
2022-09-20T23:58:37.330Z,7.50
